Time;durP1;ratioP1;P1;durP2;ratioP2;P2;SDS_P1;SDS_P2;PMS_P1;PMS_P2;Temp;Humidity;BMP_temperature;BMP_pressure;BME280_temperature;BME280_humidity;BME280_pressure;Samples;Min_cycle;Max_cycle;Signal;HPM_P1;HPM_P2
2023/05/19 00:00:36;;;;;;;15.80;4.60;;;10.40;40.70;;;;;;5067875;28;47568;-69
2023/05/19 00:03:03;;;;;;;12.77;4.83;;;10.40;40.90;;;;;;5066476;28;46392;-71
2023/05/19 00:05:29;;;;;;;9.37;4.80;;;10.30;40.70;;;;;;5064325;28;46430;-69
2023/05/19 00:08:00;;;;;;;12.77;4.80;;;10.30;41.10;;;;;;5065677;28;46638;-68
2023/05/19 00:10:30;;;;;;;9.77;5.10;;;10.30;40.80;;;;;;5066483;28;47006;-70
2023/05/19 00:12:56;;;;;;;9.97;4.70;;;10.30;41.00;;;;;;5068814;28;46393;-69
2023/05/19 00:15:25;;;;;;;13.03;4.67;;;10.20;42.50;;;;;;5067222;28;46487;-70
2023/05/19 00:17:51;;;;;;;11.40;5.10;;;10.20;41.60;;;;;;5071166;28;47045;-69
2023/05/19 00:20:16;;;;;;;9.73;4.70;;;10.20;42.00;;;;;;5063938;28;46452;-70
2023/05/19 00:22:43;;;;;;;12.63;4.73;;;10.20;42.20;;;;;;5068204;28;46668;-69
2023/05/19 00:25:09;;;;;;;15.83;5.40;;;10.20;42.20;;;;;;5069845;27;46427;-68
2023/05/19 00:27:35;;;;;;;11.50;4.87;;;10.20;42.70;;;;;;5067927;27;46420;-70
2023/05/19 00:30:01;;;;;;;11.37;6.43;;;10.20;42.80;;;;;;5067863;28;47106;-70
2023/05/19 00:32:26;;;;;;;11.27;5.57;;;10.10;43.10;;;;;;5067018;28;46483;-69
2023/05/19 00:34:52;;;;;;;12.10;5.60;;;10.10;43.30;;;;;;5068816;28;46566;-69
2023/05/19 00:37:17;;;;;;;13.80;5.53;;;10.20;43.30;;;;;;5067474;28;46442;-70
2023/05/19 00:39:43;;;;;;;10.87;5.60;;;10.10;43.70;;;;;;5067746;28;47138;-69
2023/05/19 00:42:08;;;;;;;19.20;5.13;;;10.10;43.30;;;;;;5066736;28;46389;-70
2023/05/19 00:44:38;;;;;;;12.73;5.80;;;10.20;43.30;;;;;;5067726;28;46456;-70
2023/05/19 00:47:04;;;;;;;12.20;5.40;;;10.20;43.50;;;;;;5066002;28;46710;-70
2023/05/19 00:49:30;;;;;;;11.60;4.93;;;10.20;43.40;;;;;;5068617;28;46401;-70
2023/05/19 00:51:56;;;;;;;18.60;6.27;;;10.10;43.30;;;;;;5063842;28;45733;-70
2023/05/19 00:54:22;;;;;;;10.83;4.80;;;10.20;43.50;;;;;;5064639;28;46485;-71
2023/05/19 00:56:48;;;;;;;13.27;4.87;;;10.20;43.90;;;;;;5069588;28;46624;-68
2023/05/19 00:59:15;;;;;;;14.50;5.27;;;10.10;44.20;;;;;;5065378;28;47237;-69
2023/05/19 01:01:40;;;;;;;18.13;5.53;;;10.10;44.40;;;;;;5063599;28;46389;-69
2023/05/19 01:04:08;;;;;;;13.33;5.10;;;10.10;44.50;;;;;;5066491;28;46287;-70
2023/05/19 01:06:37;;;;;;;24.73;5.80;;;10.10;44.60;;;;;;5068130;28;45859;-69
2023/05/19 01:09:03;;;;;;;13.63;5.33;;;10.10;44.70;;;;;;5066727;27;46736;-68
2023/05/19 01:11:28;;;;;;;12.27;4.70;;;10.10;44.90;;;;;;5067387;28;46553;-69
2023/05/19 01:13:54;;;;;;;15.73;5.17;;;10.10;45.10;;;;;;5064499;28;46498;-70
2023/05/19 01:16:29;;;;;;;18.27;5.10;;;10.10;45.50;;;;;;5068499;28;46533;-69
2023/05/19 01:19:30;;;;;;;14.13;5.27;;;10.10;45.30;;;;;;5066791;28;47115;-70
2023/05/19 01:22:21;;;;;;;17.87;4.73;;;10.10;45.20;;;;;;5064182;27;46438;-70
2023/05/19 01:25:12;;;;;;;14.30;5.13;;;10.10;45.20;;;;;;5068135;28;46428;-68
2023/05/19 01:27:55;;;;;;;18.87;5.00;;;10.10;45.50;;;;;;5069150;28;46365;-68
2023/05/19 01:30:36;;;;;;;11.40;4.57;;;10.10;46.00;;;;;;5067302;28;47266;-69
2023/05/19 01:33:06;;;;;;;15.50;5.40;;;10.10;46.00;;;;;;5065134;28;46396;-70
2023/05/19 01:35:35;;;;;;;26.30;6.03;;;10.10;46.10;;;;;;5065146;28;46518;-70
2023/05/19 01:38:02;;;;;;;15.13;5.33;;;10.10;46.10;;;;;;5065963;27;46310;-69
2023/05/19 01:40:28;;;;;;;16.67;4.30;;;10.10;46.00;;;;;;5070804;28;46419;-71
2023/05/19 01:42:57;;;;;;;15.37;5.40;;;10.10;45.70;;;;;;5068809;28;46384;-70
2023/05/19 01:45:23;;;;;;;16.73;5.20;;;10.10;45.70;;;;;;5069708;28;46345;-70
2023/05/19 01:47:53;;;;;;;19.83;5.17;;;10.10;45.90;;;;;;5068886;28;46589;-70
2023/05/19 01:50:19;;;;;;;16.23;5.40;;;10.10;47.00;;;;;;5066326;28;45940;-70
2023/05/19 01:52:45;;;;;;;13.37;4.43;;;10.10;46.10;;;;;;5071196;28;45884;-68
2023/05/19 01:55:11;;;;;;;15.20;5.10;;;10.00;46.20;;;;;;5069426;28;46454;-69
2023/05/19 01:57:58;;;;;;;8.13;4.63;;;10.00;46.50;;;;;;5065161;28;46643;-71
2023/05/19 02:00:38;;;;;;;13.43;4.67;;;10.00;46.90;;;;;;5067144;28;46236;-70
2023/05/19 02:03:16;;;;;;;16.63;4.73;;;10.00;47.00;;;;;;5065317;28;46564;-70
2023/05/19 02:05:54;;;;;;;14.70;4.90;;;10.00;47.00;;;;;;5065740;28;46379;-70
2023/05/19 02:08:26;;;;;;;11.50;4.77;;;10.00;46.80;;;;;;5066230;28;46294;-71
2023/05/19 02:10:59;;;;;;;14.13;5.13;;;10.00;46.60;;;;;;5068726;28;47387;-71
2023/05/19 02:13:30;;;;;;;8.67;4.33;;;10.00;46.70;;;;;;5066749;28;46540;-70
2023/05/19 02:16:03;;;;;;;14.70;5.20;;;10.00;46.70;;;;;;5065884;28;46371;-69
2023/05/19 02:18:31;;;;;;;9.03;4.43;;;10.00;46.60;;;;;;5064515;28;46361;-69
2023/05/19 02:20:56;;;;;;;22.87;4.80;;;10.00;46.30;;;;;;5066864;28;46487;-70
2023/05/19 02:23:22;;;;;;;9.30;4.63;;;10.00;46.60;;;;;;5068595;28;46437;-69
2023/05/19 02:25:47;;;;;;;11.30;5.00;;;10.10;46.60;;;;;;5067224;27;46362;-69
2023/05/19 02:28:13;;;;;;;14.30;4.53;;;10.00;46.50;;;;;;5067837;28;46476;-69
2023/05/19 02:30:38;;;;;;;14.43;4.70;;;10.00;46.50;;;;;;5066746;28;49102;-69
2023/05/19 02:33:05;;;;;;;11.47;4.80;;;10.00;46.40;;;;;;5064426;28;46350;-69
2023/05/19 02:35:32;;;;;;;14.30;4.53;;;10.00;46.40;;;;;;5066602;28;46515;-69
2023/05/19 02:37:58;;;;;;;11.60;4.70;;;10.00;46.40;;;;;;5068704;27;46353;-70
2023/05/19 02:40:24;;;;;;;14.33;5.10;;;10.00;46.40;;;;;;5066299;28;46369;-71
2023/05/19 02:42:49;;;;;;;15.23;4.60;;;10.00;46.50;;;;;;5064107;27;46472;-69
2023/05/19 02:45:15;;;;;;;12.87;4.67;;;10.00;46.90;;;;;;5067924;28;46571;-70
2023/05/19 02:47:40;;;;;;;15.43;4.27;;;10.00;47.90;;;;;;5062794;28;46394;-69
2023/05/19 02:50:07;;;;;;;16.67;5.00;;;10.00;46.80;;;;;;5067484;28;46405;-71
2023/05/19 02:52:32;;;;;;;16.83;4.57;;;10.00;46.80;;;;;;5064524;28;46426;-68
2023/05/19 02:54:58;;;;;;;13.80;4.60;;;10.00;46.80;;;;;;5064294;28;46456;-69
2023/05/19 02:57:25;;;;;;;32.43;4.53;;;10.00;47.10;;;;;;5067036;27;46421;-70
2023/05/19 02:59:51;;;;;;;8.70;4.63;;;9.90;47.90;;;;;;5063762;28;46943;-70
2023/05/19 03:02:17;;;;;;;12.40;4.67;;;10.00;47.10;;;;;;5062506;28;46405;-67
2023/05/19 03:04:42;;;;;;;8.33;4.53;;;9.90;48.00;;;;;;5066521;28;46524;-71
2023/05/19 03:07:09;;;;;;;10.40;4.87;;;9.90;47.80;;;;;;5065215;28;46608;-69
2023/05/19 03:09:37;;;;;;;17.17;4.50;;;9.90;47.90;;;;;;5064101;28;47074;-70
2023/05/19 03:12:05;;;;;;;10.80;4.63;;;9.90;48.20;;;;;;5064120;28;46378;-70
2023/05/19 03:14:31;;;;;;;7.80;4.40;;;9.90;48.20;;;;;;5065744;28;46397;-70
2023/05/19 03:16:58;;;;;;;18.53;5.10;;;9.90;48.20;;;;;;5067251;27;46415;-69
2023/05/19 03:19:24;;;;;;;13.33;4.90;;;10.00;47.20;;;;;;5065547;28;46647;-68
2023/05/19 03:21:50;;;;;;;17.13;5.10;;;9.90;48.20;;;;;;5065691;28;46331;-69
2023/05/19 03:24:16;;;;;;;8.53;4.50;;;9.90;48.50;;;;;;5065005;28;46451;-70
2023/05/19 03:26:41;;;;;;;14.87;4.83;;;9.90;48.50;;;;;;5067533;27;46335;-70
2023/05/19 03:29:07;;;;;;;14.93;4.57;;;9.90;48.90;;;;;;5066366;28;46405;-70
2023/05/19 03:31:33;;;;;;;12.43;4.80;;;9.90;48.90;;;;;;5065254;28;46281;-71
2023/05/19 03:33:58;;;;;;;12.80;4.40;;;9.90;50.10;;;;;;5062969;28;45761;-69
2023/05/19 03:36:25;;;;;;;14.47;4.80;;;9.90;48.90;;;;;;5067257;28;46461;-69
2023/05/19 03:38:50;;;;;;;14.43;4.10;;;9.90;48.80;;;;;;5070176;28;47008;-69
2023/05/19 03:41:16;;;;;;;10.80;4.80;;;9.90;48.80;;;;;;5071009;28;46285;-69
2023/05/19 03:43:41;;;;;;;12.27;5.20;;;9.90;49.10;;;;;;5068091;27;46451;-70
2023/05/19 03:46:07;;;;;;;12.77;4.93;;;9.90;49.20;;;;;;5067071;28;46458;-69
2023/05/19 03:48:32;;;;;;;13.40;4.93;;;9.90;49.50;;;;;;5070325;28;46615;-70
2023/05/19 03:50:58;;;;;;;12.03;5.57;;;9.90;49.80;;;;;;5067723;27;46439;-70
2023/05/19 03:53:25;;;;;;;16.17;5.60;;;9.90;49.80;;;;;;5071167;28;46324;-69
2023/05/19 03:55:50;;;;;;;9.83;4.93;;;9.90;50.20;;;;;;5069218;28;46557;-69
2023/05/19 03:58:16;;;;;;;12.20;4.77;;;9.90;50.30;;;;;;5066577;28;46384;-69
2023/05/19 04:00:41;;;;;;;9.00;4.63;;;9.90;50.40;;;;;;5070788;28;46454;-68
2023/05/19 04:03:07;;;;;;;12.97;5.50;;;10.00;49.50;;;;;;5068611;28;46317;-69
2023/05/19 04:05:33;;;;;;;17.00;5.70;;;9.90;50.40;;;;;;5071095;28;46340;-69
2023/05/19 04:07:59;;;;;;;14.90;4.60;;;10.00;49.70;;;;;;5069676;28;46651;-69
2023/05/19 04:10:24;;;;;;;17.53;5.53;;;9.90;50.50;;;;;;5068736;28;46456;-70
2023/05/19 04:12:50;;;;;;;17.03;5.50;;;9.90;50.50;;;;;;5067521;28;46744;-69
2023/05/19 04:15:15;;;;;;;15.13;4.57;;;10.00;49.50;;;;;;5068762;28;46720;-71
2023/05/19 04:17:41;;;;;;;15.63;4.60;;;10.00;49.70;;;;;;5067410;28;46570;-69
2023/05/19 04:20:07;;;;;;;11.97;5.27;;;10.00;49.70;;;;;;5068715;28;46498;-69
2023/05/19 04:22:33;;;;;;;13.90;5.37;;;10.00;49.60;;;;;;5067763;28;46441;-70
2023/05/19 04:24:59;;;;;;;12.40;4.60;;;10.00;49.60;;;;;;5068660;28;47210;-70
2023/05/19 04:27:26;;;;;;;12.13;4.67;;;10.10;49.50;;;;;;5068096;28;46444;-71
2023/05/19 04:29:53;;;;;;;19.27;7.10;;;10.10;49.50;;;;;;5068434;28;46471;-69
2023/05/19 04:32:19;;;;;;;13.60;4.73;;;10.10;49.80;;;;;;5069580;28;46384;-70
2023/05/19 04:34:45;;;;;;;14.33;5.43;;;10.10;49.80;;;;;;5070625;28;46795;-70
2023/05/19 04:37:12;;;;;;;19.33;5.30;;;10.10;51.00;;;;;;5069504;28;46473;-70
2023/05/19 04:39:41;;;;;;;16.17;4.53;;;10.20;49.70;;;;;;5071651;27;46318;-70
2023/05/19 04:42:08;;;;;;;19.50;6.47;;;10.20;49.70;;;;;;5068976;28;45834;-70
2023/05/19 04:44:35;;;;;;;12.00;5.40;;;10.20;50.70;;;;;;5069130;28;46362;-69
2023/05/19 04:47:00;;;;;;;15.67;5.73;;;10.20;49.60;;;;;;5067990;27;46713;-68
2023/05/19 04:49:26;;;;;;;14.73;4.70;;;10.30;49.40;;;;;;5069347;28;45851;-69
2023/05/19 04:51:52;;;;;;;16.50;6.13;;;10.30;49.40;;;;;;5070043;28;46482;-68
2023/05/19 04:54:17;;;;;;;15.10;5.60;;;10.30;49.30;;;;;;5065572;28;46567;-68
2023/05/19 04:56:43;;;;;;;11.70;5.53;;;10.40;49.30;;;;;;5070700;28;46398;-70
2023/05/19 04:59:09;;;;;;;13.20;4.87;;;10.50;49.00;;;;;;5067275;28;46472;-72
2023/05/19 05:01:39;;;;;;;8.83;4.30;;;10.50;48.80;;;;;;5070418;28;46432;-72
2023/05/19 05:04:05;;;;;;;9.80;5.03;;;10.70;48.40;;;;;;5063863;28;46314;-70
2023/05/19 05:06:30;;;;;;;14.40;5.40;;;10.70;48.30;;;;;;5067825;28;46562;-71
2023/05/19 05:08:56;;;;;;;10.60;4.97;;;10.70;48.30;;;;;;5066692;28;46409;-70
2023/05/19 05:11:22;;;;;;;12.80;4.67;;;10.70;48.30;;;;;;5068714;28;46303;-70
2023/05/19 05:13:48;;;;;;;13.40;4.83;;;10.80;48.20;;;;;;5066584;28;46376;-71
2023/05/19 05:16:14;;;;;;;10.93;5.10;;;10.70;48.20;;;;;;5064890;27;46471;-70
2023/05/19 05:18:40;;;;;;;10.83;5.10;;;10.80;48.20;;;;;;5064290;28;46413;-69
2023/05/19 05:21:06;;;;;;;14.60;5.57;;;10.80;48.00;;;;;;5066094;28;46286;-70
2023/05/19 05:23:32;;;;;;;10.03;4.50;;;11.00;47.40;;;;;;5066210;28;46588;-70
2023/05/19 05:25:58;;;;;;;16.77;5.30;;;11.00;47.40;;;;;;5063938;28;48341;-70
2023/05/19 05:28:24;;;;;;;12.53;5.00;;;11.00;47.40;;;;;;5072314;28;46090;-70
2023/05/19 05:30:50;;;;;;;13.07;4.90;;;11.10;47.20;;;;;;5068767;28;46453;-69
2023/05/19 05:33:16;;;;;;;10.90;4.83;;;11.10;47.10;;;;;;5068044;28;46561;-70
2023/05/19 05:35:42;;;;;;;13.13;4.70;;;11.20;46.80;;;;;;5067511;27;46443;-70
2023/05/19 05:38:10;;;;;;;12.70;5.10;;;11.30;46.90;;;;;;5065457;28;46306;-70
2023/05/19 05:40:35;;;;;;;10.43;4.40;;;11.40;46.40;;;;;;5072835;27;45953;-69
2023/05/19 05:43:01;;;;;;;18.57;5.77;;;11.50;46.20;;;;;;5066061;28;46685;-71
2023/05/19 05:45:26;;;;;;;10.50;4.90;;;11.50;46.00;;;;;;5065471;28;48134;-68
2023/05/19 05:47:52;;;;;;;14.00;4.50;;;11.60;45.80;;;;;;5063202;28;46393;-70
2023/05/19 05:50:18;;;;;;;9.57;4.50;;;11.60;45.40;;;;;;5067996;28;46459;-70
2023/05/19 05:52:46;;;;;;;12.83;5.43;;;11.70;45.40;;;;;;5066624;28;46374;-71
2023/05/19 05:55:12;;;;;;;14.70;5.07;;;11.80;45.30;;;;;;5064353;28;47195;-71
2023/05/19 05:57:40;;;;;;;9.57;4.70;;;11.90;44.90;;;;;;5066090;28;46411;-71
2023/05/19 06:00:14;;;;;;;16.70;5.40;;;12.10;44.40;;;;;;5066941;27;46777;-70
2023/05/19 06:02:47;;;;;;;12.50;5.33;;;12.10;44.40;;;;;;5064124;28;46334;-70
2023/05/19 06:05:13;;;;;;;16.10;4.70;;;12.10;43.80;;;;;;5067505;28;46648;-71
2023/05/19 06:07:39;;;;;;;14.13;5.43;;;12.30;43.80;;;;;;5065303;28;46495;-71
2023/05/19 06:10:06;;;;;;;15.20;5.30;;;12.40;43.00;;;;;;5064624;28;46457;-70
2023/05/19 06:12:32;;;;;;;13.53;4.60;;;12.60;42.70;;;;;;5068174;28;46668;-69
2023/05/19 06:14:57;;;;;;;11.63;5.13;;;12.70;42.00;;;;;;5080297;27;48044;-69
2023/05/19 06:17:23;;;;;;;17.40;5.63;;;13.10;41.30;;;;;;5067325;28;46335;-69
2023/05/19 06:19:49;;;;;;;11.90;4.57;;;13.30;39.90;;;;;;5064708;28;46463;-69
2023/05/19 06:22:14;;;;;;;16.40;5.47;;;13.50;39.40;;;;;;5068712;28;46591;-70
2023/05/19 06:24:40;;;;;;;12.63;5.10;;;13.60;39.40;;;;;;5066619;28;46396;-70
2023/05/19 06:27:06;;;;;;;14.30;4.97;;;13.60;38.60;;;;;;5071954;28;46431;-68
2023/05/19 06:29:31;;;;;;;18.13;5.13;;;13.60;37.60;;;;;;5067778;28;46443;-70
2023/05/19 06:31:58;;;;;;;15.10;5.20;;;13.30;37.80;;;;;;5065236;28;46502;-69
2023/05/19 06:34:23;;;;;;;24.60;4.83;;;13.30;38.20;;;;;;5066571;27;47174;-69
2023/05/19 06:36:49;;;;;;;11.33;4.87;;;13.30;38.10;;;;;;5063245;28;46435;-70
2023/05/19 06:39:14;;;;;;;11.17;5.00;;;13.40;38.00;;;;;;5068057;28;46364;-71
2023/05/19 06:41:40;;;;;;;11.83;4.80;;;13.40;38.10;;;;;;5066441;28;46507;-70
2023/05/19 06:44:07;;;;;;;17.33;5.30;;;13.40;37.80;;;;;;5065142;28;46492;-67
2023/05/19 06:46:33;;;;;;;13.93;4.50;;;13.50;37.50;;;;;;5068095;28;46725;-66
2023/05/19 06:48:59;;;;;;;11.27;5.00;;;13.60;37.10;;;;;;5067717;28;46293;-68
2023/05/19 06:51:31;;;;;;;13.70;5.07;;;13.60;37.00;;;;;;5065334;27;46438;-68
2023/05/19 06:53:58;;;;;;;9.37;4.70;;;13.70;36.80;;;;;;5062771;28;46616;-66
2023/05/19 06:56:24;;;;;;;12.37;4.70;;;13.70;36.60;;;;;;5069958;28;46546;-68
2023/05/19 06:58:50;;;;;;;14.70;4.97;;;13.70;36.30;;;;;;5065190;28;46481;-68
2023/05/19 07:01:16;;;;;;;16.30;4.80;;;13.50;36.20;;;;;;5067009;28;46597;-68
2023/05/19 07:03:42;;;;;;;15.20;5.00;;;13.60;36.20;;;;;;5064586;28;47106;-67
2023/05/19 07:06:08;;;;;;;8.20;4.43;;;13.70;36.10;;;;;;5064832;28;46566;-67
2023/05/19 07:08:35;;;;;;;10.33;4.40;;;13.80;36.00;;;;;;5066255;28;45829;-68
2023/05/19 07:11:03;;;;;;;10.90;4.03;;;14.00;35.70;;;;;;5065768;28;45819;-67
2023/05/19 07:13:31;;;;;;;9.03;3.90;;;13.90;35.70;;;;;;5066913;28;47792;-68
2023/05/19 07:15:57;;;;;;;11.70;4.93;;;13.90;35.30;;;;;;5064346;28;46443;-68
2023/05/19 07:18:24;;;;;;;10.43;4.30;;;13.90;35.40;;;;;;5064133;28;46472;-68
2023/05/19 07:20:52;;;;;;;10.97;4.10;;;13.90;34.90;;;;;;5063820;28;46298;-66
2023/05/19 07:23:17;;;;;;;11.50;4.40;;;14.00;34.90;;;;;;5064485;28;46597;-66
2023/05/19 07:25:43;;;;;;;9.20;4.50;;;14.00;34.50;;;;;;5064652;28;46620;-66
2023/05/19 07:28:09;;;;;;;7.40;4.07;;;14.10;34.50;;;;;;5065622;28;46419;-67
2023/05/19 07:30:34;;;;;;;9.90;4.17;;;14.10;33.90;;;;;;5063304;28;46421;-68
2023/05/19 07:33:00;;;;;;;16.97;4.77;;;14.10;33.70;;;;;;5063327;28;46310;-67
2023/05/19 07:35:25;;;;;;;10.07;4.87;;;14.20;33.80;;;;;;5062072;28;46431;-68
2023/05/19 07:37:51;;;;;;;10.90;5.27;;;14.20;33.70;;;;;;5063496;28;46833;-66
2023/05/19 07:40:17;;;;;;;10.73;4.87;;;14.40;33.30;;;;;;5064108;28;46507;-69
2023/05/19 07:42:43;;;;;;;11.53;4.70;;;14.40;32.70;;;;;;5065013;28;46417;-67
2023/05/19 07:45:09;;;;;;;12.83;5.33;;;14.60;32.20;;;;;;5061866;27;46468;-69
2023/05/19 07:47:36;;;;;;;12.00;5.13;;;14.70;31.60;;;;;;5067163;28;46468;-68
2023/05/19 07:50:02;;;;;;;11.13;4.97;;;15.00;31.40;;;;;;5066315;28;47133;-66
2023/05/19 07:52:27;;;;;;;11.33;5.50;;;15.10;30.30;;;;;;5068409;28;46314;-67
2023/05/19 07:54:53;;;;;;;16.50;5.63;;;15.20;30.00;;;;;;5064330;28;46326;-66
2023/05/19 07:57:19;;;;;;;15.03;5.20;;;15.30;29.80;;;;;;5063929;28;46523;-66
2023/05/19 07:59:44;;;;;;;13.80;5.93;;;15.30;29.90;;;;;;5064006;27;46566;-66
2023/05/19 08:02:10;;;;;;;13.13;4.80;;;15.30;29.80;;;;;;5064085;28;49190;-66
2023/05/19 08:04:36;;;;;;;6.90;4.50;;;15.30;29.80;;;;;;5063469;28;46616;-66
2023/05/19 08:07:02;;;;;;;10.80;5.07;;;15.10;29.70;;;;;;5063401;28;46403;-66
2023/05/19 08:09:27;;;;;;;9.47;4.43;;;15.10;29.70;;;;;;5062434;28;45937;-66
2023/05/19 08:11:53;;;;;;;10.03;4.13;;;15.40;29.90;;;;;;5064559;27;46660;-66
2023/05/19 08:14:21;;;;;;;10.60;4.60;;;15.30;29.40;;;;;;5061817;28;46298;-66
2023/05/19 08:16:47;;;;;;;13.37;5.70;;;15.00;29.60;;;;;;5064626;28;46369;-65
2023/05/19 08:19:13;;;;;;;11.03;5.60;;;15.00;29.60;;;;;;5064670;28;46612;-66
2023/05/19 08:21:41;;;;;;;15.70;4.60;;;15.10;29.70;;;;;;5061862;28;46404;-66
2023/05/19 08:24:07;;;;;;;8.87;4.67;;;15.00;29.20;;;;;;5068737;28;46423;-66
2023/05/19 08:26:33;;;;;;;6.70;3.77;;;15.00;29.20;;;;;;5067710;28;46428;-66
2023/05/19 08:28:59;;;;;;;9.03;4.63;;;14.90;29.60;;;;;;5072440;28;46180;-66
2023/05/19 08:31:24;;;;;;;7.63;4.60;;;14.70;29.40;;;;;;5067686;28;46494;-66
2023/05/19 08:33:50;;;;;;;8.33;4.73;;;14.90;28.60;;;;;;5068376;28;45847;-65
2023/05/19 08:36:16;;;;;;;8.50;4.83;;;15.00;28.00;;;;;;5067488;28;46647;-66
2023/05/19 08:38:41;;;;;;;8.73;4.50;;;15.00;27.80;;;;;;5069066;27;46358;-66
2023/05/19 08:41:07;;;;;;;12.80;5.33;;;15.00;27.80;;;;;;5068730;28;46799;-65
2023/05/19 08:43:33;;;;;;;8.57;4.00;;;15.10;28.00;;;;;;5069311;28;46758;-65
2023/05/19 08:45:59;;;;;;;9.33;4.43;;;15.40;27.90;;;;;;5067826;28;46532;-65
2023/05/19 08:48:28;;;;;;;10.07;5.13;;;15.50;27.20;;;;;;5068163;28;46460;-65
2023/05/19 08:50:59;;;;;;;8.43;4.63;;;15.40;26.90;;;;;;5067104;28;46712;-67
2023/05/19 08:53:36;;;;;;;9.93;4.90;;;15.10;27.00;;;;;;5065747;27;46515;-67
2023/05/19 08:56:11;;;;;;;9.73;5.30;;;15.00;27.40;;;;;;5067324;28;46632;-66
2023/05/19 08:58:42;;;;;;;9.87;5.13;;;14.80;27.80;;;;;;5068492;28;46220;-65
2023/05/19 09:01:13;;;;;;;13.00;5.47;;;14.70;28.30;;;;;;5066509;27;48178;-67
2023/05/19 09:03:39;;;;;;;7.70;4.57;;;14.50;28.70;;;;;;5061901;28;46498;-67
2023/05/19 09:06:13;;;;;;;10.80;5.20;;;14.70;28.50;;;;;;5066881;28;45878;-66
2023/05/19 09:08:39;;;;;;;11.90;4.97;;;14.90;28.00;;;;;;5070004;28;46362;-66
2023/05/19 09:11:05;;;;;;;12.00;4.70;;;15.10;27.80;;;;;;5064975;28;46937;-66
2023/05/19 09:13:31;;;;;;;8.80;5.47;;;15.30;27.50;;;;;;5066676;28;46423;-67
2023/05/19 09:15:57;;;;;;;11.70;5.77;;;15.50;27.20;;;;;;5066340;27;46290;-66
2023/05/19 09:18:26;;;;;;;12.50;5.20;;;15.50;26.80;;;;;;5066279;28;46416;-65
2023/05/19 09:20:59;;;;;;;15.63;6.03;;;15.30;27.90;;;;;;5065922;28;47496;-66
2023/05/19 09:23:31;;;;;;;11.47;5.47;;;15.20;27.10;;;;;;5066354;27;46223;-66
2023/05/19 09:25:57;;;;;;;9.47;5.10;;;15.20;27.30;;;;;;5074015;28;46317;-67
2023/05/19 09:28:29;;;;;;;10.53;5.73;;;15.30;27.20;;;;;;5064380;28;46321;-66
2023/05/19 09:31:01;;;;;;;7.60;4.80;;;15.20;27.30;;;;;;5068574;28;46591;-66
2023/05/19 09:33:28;;;;;;;8.90;5.00;;;15.30;27.30;;;;;;5063844;28;46401;-66
2023/05/19 09:35:57;;;;;;;9.53;5.50;;;15.30;27.20;;;;;;5067083;28;46254;-66
2023/05/19 09:38:24;;;;;;;10.90;5.40;;;15.30;27.10;;;;;;5064016;28;46432;-66
2023/05/19 09:41:00;;;;;;;11.93;5.30;;;15.20;26.80;;;;;;5069417;28;47009;-65
2023/05/19 09:43:33;;;;;;;8.87;4.47;;;15.00;26.90;;;;;;5066766;28;47216;-65
2023/05/19 09:46:02;;;;;;;9.50;4.93;;;15.40;26.50;;;;;;5067068;28;46525;-65
2023/05/19 09:48:29;;;;;;;10.83;5.40;;;15.40;26.10;;;;;;5066883;27;46491;-66
2023/05/19 09:50:56;;;;;;;12.23;6.10;;;15.40;26.50;;;;;;5065762;28;46758;-66
2023/05/19 09:53:22;;;;;;;8.60;5.40;;;15.10;26.70;;;;;;5068070;28;46353;-65
2023/05/19 09:55:49;;;;;;;11.67;5.53;;;14.90;27.30;;;;;;5064058;28;46419;-66
2023/05/19 09:58:17;;;;;;;10.70;5.33;;;15.20;27.30;;;;;;5065493;28;45888;-65
2023/05/19 10:00:44;;;;;;;9.57;5.33;;;15.60;26.70;;;;;;5064487;28;46378;-65
2023/05/19 10:03:11;;;;;;;9.00;5.70;;;15.80;26.20;;;;;;5069340;28;46369;-65
2023/05/19 10:05:37;;;;;;;9.40;4.90;;;16.20;25.90;;;;;;5067026;28;46491;-65
2023/05/19 10:08:06;;;;;;;14.17;5.80;;;16.30;25.40;;;;;;5066612;28;47198;-65
2023/05/19 10:10:32;;;;;;;11.00;6.17;;;16.30;25.40;;;;;;5064848;28;46137;-66
2023/05/19 10:12:59;;;;;;;14.27;5.07;;;16.40;25.10;;;;;;5062024;28;46432;-66
2023/05/19 10:15:26;;;;;;;14.07;5.53;;;16.50;24.80;;;;;;5060782;28;46604;-66
2023/05/19 10:17:51;;;;;;;11.40;4.97;;;16.60;24.90;;;;;;5064196;28;46393;-65
2023/05/19 10:20:17;;;;;;;10.60;5.80;;;16.50;24.00;;;;;;5064531;28;46511;-64
2023/05/19 10:22:44;;;;;;;13.47;5.70;;;16.20;24.40;;;;;;5065408;28;46419;-64
2023/05/19 10:25:17;;;;;;;11.80;5.27;;;16.10;24.70;;;;;;5064636;27;46728;-66
2023/05/19 10:28:00;;;;;;;9.67;5.60;;;15.80;25.20;;;;;;5067788;28;46436;-66
2023/05/19 10:30:32;;;;;;;8.47;5.20;;;15.40;25.90;;;;;;5064841;28;46716;-65
2023/05/19 10:33:00;;;;;;;9.80;5.90;;;15.00;26.60;;;;;;5063005;28;46536;-65
2023/05/19 10:35:38;;;;;;;14.13;5.93;;;15.00;27.60;;;;;;5066668;28;46377;-66
2023/05/19 10:38:27;;;;;;;11.33;4.83;;;15.40;26.60;;;;;;5063662;28;46317;-66
2023/05/19 10:41:01;;;;;;;8.53;4.50;;;15.70;26.00;;;;;;5065159;28;46487;-67
2023/05/19 10:44:05;;;;;;;7.93;4.60;;;16.10;25.00;;;;;;5063905;27;46599;-65
2023/05/19 10:46:31;;;;;;;10.07;5.67;;;16.00;24.90;;;;;;5026860;28;46854;-65
2023/05/19 10:48:57;;;;;;;11.23;5.23;;;15.90;25.30;;;;;;5044936;28;46601;-65
2023/05/19 10:51:32;;;;;;;17.00;5.83;;;15.50;25.70;;;;;;5052308;28;46472;-66
2023/05/19 10:54:01;;;;;;;9.03;5.50;;;15.10;26.40;;;;;;5061609;28;46833;-66
2023/05/19 10:56:33;;;;;;;8.70;5.77;;;15.00;26.70;;;;;;5066023;28;46452;-65
2023/05/19 10:59:00;;;;;;;9.53;6.17;;;15.10;26.60;;;;;;5060816;28;46462;-64
2023/05/19 11:01:34;;;;;;;12.47;5.50;;;14.80;27.00;;;;;;5064173;28;48021;-65
2023/05/19 11:04:12;;;;;;;9.00;5.60;;;14.60;27.60;;;;;;5063867;28;46424;-64
2023/05/19 11:06:39;;;;;;;11.77;5.27;;;14.50;28.00;;;;;;5066682;28;45908;-66
2023/05/19 11:09:10;;;;;;;11.93;5.93;;;14.70;27.80;;;;;;5065109;28;46565;-64
2023/05/19 11:11:52;;;;;;;13.40;6.50;;;14.80;27.80;;;;;;5067375;28;47916;-65
2023/05/19 11:14:21;;;;;;;8.63;5.57;;;15.00;27.50;;;;;;5067614;28;46787;-65
2023/05/19 11:16:48;;;;;;;11.77;5.53;;;15.30;27.20;;;;;;5063740;28;46428;-64
2023/05/19 11:19:31;;;;;;;12.77;6.63;;;15.40;26.90;;;;;;5065994;28;45818;-64
2023/05/19 11:22:06;;;;;;;9.30;5.53;;;15.70;26.30;;;;;;5064924;28;46537;-65
2023/05/19 11:24:43;;;;;;;7.67;5.70;;;15.60;26.10;;;;;;5060895;28;45796;-64
2023/05/19 11:27:26;;;;;;;11.17;5.70;;;15.70;26.20;;;;;;5062970;28;45833;-64
2023/05/19 11:29:54;;;;;;;9.53;5.80;;;15.70;26.00;;;;;;5067678;28;46716;-65
2023/05/19 11:32:21;;;;;;;10.30;5.60;;;15.60;25.70;;;;;;5066439;28;46168;-64
2023/05/19 11:34:48;;;;;;;8.90;5.60;;;15.70;25.70;;;;;;5062386;28;46439;-66
2023/05/19 11:37:14;;;;;;;12.37;5.63;;;15.50;25.90;;;;;;5066525;28;46524;-65
2023/05/19 11:39:40;;;;;;;10.93;6.07;;;15.70;25.90;;;;;;5063958;28;46618;-66
2023/05/19 11:42:09;;;;;;;15.70;5.30;;;15.80;25.70;;;;;;5065566;28;46281;-65
2023/05/19 11:44:35;;;;;;;17.57;6.50;;;15.70;25.30;;;;;;5064286;28;46348;-65
2023/05/19 11:47:00;;;;;;;9.30;5.73;;;15.70;25.20;;;;;;5064361;28;46441;-65
2023/05/19 11:49:28;;;;;;;11.70;5.40;;;15.70;25.40;;;;;;5069477;28;46628;-65
2023/05/19 11:51:54;;;;;;;10.63;5.80;;;15.90;25.40;;;;;;5064021;27;46454;-65
2023/05/19 11:54:19;;;;;;;13.10;6.40;;;15.80;25.20;;;;;;5061535;28;46443;-65
2023/05/19 11:56:46;;;;;;;13.07;6.10;;;15.50;25.30;;;;;;5066876;28;45913;-65
2023/05/19 11:59:11;;;;;;;11.03;6.03;;;15.50;25.40;;;;;;5068291;28;46521;-65
2023/05/19 12:01:37;;;;;;;13.63;5.60;;;15.40;25.80;;;;;;5066564;28;46379;-65
2023/05/19 12:04:08;;;;;;;9.47;5.23;;;15.10;26.20;;;;;;5066806;28;46497;-64
2023/05/19 12:06:35;;;;;;;7.80;5.40;;;15.10;26.40;;;;;;5067454;28;46431;-64
2023/05/19 12:09:01;;;;;;;10.63;5.33;;;15.00;26.50;;;;;;5070350;28;46436;-65
2023/05/19 12:11:27;;;;;;;8.40;5.80;;;15.00;26.60;;;;;;5068079;28;47206;-65
2023/05/19 12:13:57;;;;;;;14.50;5.73;;;15.00;26.70;;;;;;5066613;28;46362;-65
2023/05/19 12:16:23;;;;;;;8.20;5.47;;;14.80;27.10;;;;;;5067412;28;46653;-65
2023/05/19 12:18:48;;;;;;;12.77;5.90;;;15.00;27.20;;;;;;5065362;28;46967;-65
2023/05/19 12:21:14;;;;;;;10.73;5.37;;;15.30;26.60;;;;;;5067600;28;45973;-65
2023/05/19 12:23:41;;;;;;;7.40;5.10;;;15.50;26.40;;;;;;5066323;28;46348;-64
2023/05/19 12:26:06;;;;;;;10.63;5.20;;;15.80;25.80;;;;;;5067601;28;46366;-64
2023/05/19 12:28:32;;;;;;;9.97;5.57;;;15.90;25.40;;;;;;5066752;28;46291;-65
2023/05/19 12:30:58;;;;;;;9.70;5.33;;;16.10;25.10;;;;;;5066550;28;47059;-65
2023/05/19 12:33:24;;;;;;;8.80;5.33;;;16.10;24.80;;;;;;5069424;28;46495;-65
2023/05/19 12:35:50;;;;;;;8.80;5.33;;;16.30;24.80;;;;;;5066074;28;46715;-66
2023/05/19 12:38:17;;;;;;;10.03;6.37;;;16.30;25.00;;;;;;5065072;28;46425;-66
2023/05/19 12:40:43;;;;;;;11.17;5.80;;;16.50;24.60;;;;;;5065456;27;47156;-65
2023/05/19 12:43:19;;;;;;;12.37;5.60;;;16.60;24.30;;;;;;5064545;28;46643;-66